sensor_id;sensor_type;location;lat;lon;timestamp;temperature;humidity
7498;DHT22;3790;48.806;9.140;2024-01-30T07:53:31;1.60;99.90
7498;DHT22;3790;48.806;9.140;2024-01-30T07:58:32;1.80;99.90
7498;DHT22;3790;48.806;9.140;2024-01-30T08:03:32;2.10;99.90
7498;DHT22;3790;48.806;9.140;2024-01-30T08:08:33;2.60;99.90
7498;DHT22;3790;48.806;9.140;2024-01-30T08:13:33;2.90;99.90
7498;DHT22;3790;48.806;9.140;2024-01-30T08:18:34;3.10;99.90
7498;DHT22;3790;48.806;9.140;2024-01-30T08:23:34;3.30;99.90
7498;DHT22;3790;48.806;9.140;2024-01-30T08:28:35;3.40;99.90
7498;DHT22;3790;48.806;9.140;2024-01-30T08:33:35;3.50;99.90
7498;DHT22;3790;48.806;9.140;2024-01-30T08:38:36;3.60;99.90
7498;DHT22;3790;48.806;9.140;2024-01-30T08:43:36;3.50;99.90
7498;DHT22;3790;48.806;9.140;2024-01-30T08:48:37;3.70;99.90
7498;DHT22;3790;48.806;9.140;2024-01-30T08:53:37;3.70;99.90
7498;DHT22;3790;48.806;9.140;2024-01-30T08:58:38;3.90;99.90
7498;DHT22;3790;48.806;9.140;2024-01-30T09:03:39;4.00;99.90
7498;DHT22;3790;48.806;9.140;2024-01-30T09:08:43;4.30;99.90
7498;DHT22;3790;48.806;9.140;2024-01-30T09:13:44;4.60;99.90
7498;DHT22;3790;48.806;9.140;2024-01-30T09:18:44;5.00;99.90
7498;DHT22;3790;48.806;9.140;2024-01-30T09:23:45;5.30;99.90
7498;DHT22;3790;48.806;9.140;2024-01-30T09:28:45;5.60;99.90
7498;DHT22;3790;48.806;9.140;2024-01-30T09:33:46;5.90;99.90
7498;DHT22;3790;48.806;9.140;2024-01-30T09:38:48;6.20;99.90
7498;DHT22;3790;48.806;9.140;2024-01-30T09:43:49;6.40;99.90
7498;DHT22;3790;48.806;9.140;2024-01-30T09:48:50;6.70;99.90
7498;DHT22;3790;48.806;9.140;2024-01-30T09:53:51;7.00;99.90
7498;DHT22;3790;48.806;9.140;2024-01-30T09:58:52;7.20;99.90
7498;DHT22;3790;48.806;9.140;2024-01-30T10:03:53;7.50;99.90
7498;DHT22;3790;48.806;9.140;2024-01-30T10:08:54;7.80;99.90
7498;DHT22;3790;48.806;9.140;2024-01-30T10:13:54;8.10;99.90
7498;DHT22;3790;48.806;9.140;2024-01-30T10:18:55;8.40;99.90
7498;DHT22;3790;48.806;9.140;2024-01-30T10:23:56;8.60;99.90
7498;DHT22;3790;48.806;9.140;2024-01-30T10:28:56;8.80;99.90
7498;DHT22;3790;48.806;9.140;2024-01-30T10:33:57;9.10;99.90
7498;DHT22;3790;48.806;9.140;2024-01-30T10:38:59;9.30;99.90
7498;DHT22;3790;48.806;9.140;2024-01-30T10:44:09;9.50;99.90
7498;DHT22;3790;48.806;9.140;2024-01-30T10:49:10;9.60;99.90
7498;DHT22;3790;48.806;9.140;2024-01-30T10:54:11;9.80;99.90
7498;DHT22;3790;48.806;9.140;2024-01-30T10:59:13;9.90;99.90
7498;DHT22;3790;48.806;9.140;2024-01-30T11:04:14;10.10;99.90
7498;DHT22;3790;48.806;9.140;2024-01-30T11:09:17;10.30;99.90
7498;DHT22;3790;48.806;9.140;2024-01-30T11:14:24;10.40;99.90
7498;DHT22;3790;48.806;9.140;2024-01-30T11:19:27;10.50;99.90
7498;DHT22;3790;48.806;9.140;2024-01-30T11:24:27;10.70;99.90
7498;DHT22;3790;48.806;9.140;2024-01-30T11:29:28;10.70;99.90
7498;DHT22;3790;48.806;9.140;2024-01-30T11:34:29;10.80;99.90
7498;DHT22;3790;48.806;9.140;2024-01-30T11:39:30;11.00;99.90
7498;DHT22;3790;48.806;9.140;2024-01-30T11:44:30;11.10;99.90
7498;DHT22;3790;48.806;9.140;2024-01-30T11:49:31;11.30;99.90
7498;DHT22;3790;48.806;9.140;2024-01-30T11:54:31;11.30;99.90
7498;DHT22;3790;48.806;9.140;2024-01-30T11:59:32;11.50;99.90
7498;DHT22;3790;48.806;9.140;2024-01-30T12:04:32;11.70;99.90
7498;DHT22;3790;48.806;9.140;2024-01-30T12:09:33;11.80;99.90
7498;DHT22;3790;48.806;9.140;2024-01-30T12:14:33;12.00;99.90
7498;DHT22;3790;48.806;9.140;2024-01-30T12:19:34;12.00;99.90
7498;DHT22;3790;48.806;9.140;2024-01-30T12:24:35;12.00;99.90
7498;DHT22;3790;48.806;9.140;2024-01-30T12:29:35;12.00;99.90
7498;DHT22;3790;48.806;9.140;2024-01-30T12:34:40;12.00;99.90
7498;DHT22;3790;48.806;9.140;2024-01-30T12:39:42;12.20;99.90
7498;DHT22;3790;48.806;9.140;2024-01-30T12:44:42;12.10;99.90
7498;DHT22;3790;48.806;9.140;2024-01-30T12:49:43;12.20;99.90
7498;DHT22;3790;48.806;9.140;2024-01-30T12:54:44;12.40;99.90
7498;DHT22;3790;48.806;9.140;2024-01-30T12:59:45;12.60;99.90
7498;DHT22;3790;48.806;9.140;2024-01-30T13:04:46;12.80;99.90
7498;DHT22;3790;48.806;9.140;2024-01-30T13:09:47;12.80;99.90
7498;DHT22;3790;48.806;9.140;2024-01-30T13:14:47;12.90;99.90
7498;DHT22;3790;48.806;9.140;2024-01-30T13:19:48;13.00;99.90
7498;DHT22;3790;48.806;9.140;2024-01-30T13:24:50;13.00;99.90
7498;DHT22;3790;48.806;9.140;2024-01-30T13:29:50;13.10;99.90
7498;DHT22;3790;48.806;9.140;2024-01-30T13:34:51;13.00;99.90
7498;DHT22;3790;48.806;9.140;2024-01-30T13:39:51;12.90;99.90
7498;DHT22;3790;48.806;9.140;2024-01-30T13:44:52;12.80;99.90
7498;DHT22;3790;48.806;9.140;2024-01-30T13:49:53;12.80;99.90
7498;DHT22;3790;48.806;9.140;2024-01-30T13:54:54;12.80;99.90
7498;DHT22;3790;48.806;9.140;2024-01-30T13:59:54;12.90;99.90
7498;DHT22;3790;48.806;9.140;2024-01-30T14:04:55;12.90;99.90
7498;DHT22;3790;48.806;9.140;2024-01-30T14:09:55;13.00;99.90
7498;DHT22;3790;48.806;9.140;2024-01-30T14:14:56;12.90;99.90
7498;DHT22;3790;48.806;9.140;2024-01-30T14:19:56;12.80;99.90
7498;DHT22;3790;48.806;9.140;2024-01-30T14:24:57;12.80;99.90
7498;DHT22;3790;48.806;9.140;2024-01-30T14:29:57;12.70;99.90
7498;DHT22;3790;48.806;9.140;2024-01-30T14:34:58;12.60;99.90
7498;DHT22;3790;48.806;9.140;2024-01-30T14:39:58;12.50;99.90
7498;DHT22;3790;48.806;9.140;2024-01-30T14:44:59;12.50;99.90
7498;DHT22;3790;48.806;9.140;2024-01-30T14:50:00;12.50;99.90
7498;DHT22;3790;48.806;9.140;2024-01-30T14:55:01;12.50;99.90
7498;DHT22;3790;48.806;9.140;2024-01-30T15:00:01;12.40;99.90
7498;DHT22;3790;48.806;9.140;2024-01-30T15:05:02;12.30;99.90
7498;DHT22;3790;48.806;9.140;2024-01-30T15:10:03;12.20;99.90
7498;DHT22;3790;48.806;9.140;2024-01-30T15:15:06;12.20;99.90
7498;DHT22;3790;48.806;9.140;2024-01-30T15:20:08;12.10;99.90
7498;DHT22;3790;48.806;9.140;2024-01-30T15:25:09;11.90;99.90
7498;DHT22;3790;48.806;9.140;2024-01-30T15:30:11;11.60;99.90
7498;DHT22;3790;48.806;9.140;2024-01-30T15:35:12;11.30;99.90
7498;DHT22;3790;48.806;9.140;2024-01-30T15:40:13;11.10;99.90
7498;DHT22;3790;48.806;9.140;2024-01-30T15:45:13;10.80;99.90
7498;DHT22;3790;48.806;9.140;2024-01-30T15:50:14;10.60;99.90
7498;DHT22;3790;48.806;9.140;2024-01-30T15:55:15;10.30;99.90
7498;DHT22;3790;48.806;9.140;2024-01-30T16:00:16;9.90;99.90
7498;DHT22;3790;48.806;9.140;2024-01-30T16:05:17;9.60;99.90
7498;DHT22;3790;48.806;9.140;2024-01-30T16:10:17;9.30;99.90
7498;DHT22;3790;48.806;9.140;2024-01-30T16:15:18;9.30;99.90
7498;DHT22;3790;48.806;9.140;2024-01-30T16:20:18;9.10;99.90
7498;DHT22;3790;48.806;9.140;2024-01-30T16:25:19;8.80;99.90
7498;DHT22;3790;48.806;9.140;2024-01-30T16:30:20;8.80;99.90
7498;DHT22;3790;48.806;9.140;2024-01-30T16:35:20;8.90;99.90
7498;DHT22;3790;48.806;9.140;2024-01-30T16:40:21;8.80;99.90
7498;DHT22;3790;48.806;9.140;2024-01-30T16:45:22;9.10;99.90
7498;DHT22;3790;48.806;9.140;2024-01-30T16:50:22;9.30;99.90
7498;DHT22;3790;48.806;9.140;2024-01-30T16:55:23;9.40;99.90
7498;DHT22;3790;48.806;9.140;2024-01-30T17:00:25;9.50;99.90
7498;DHT22;3790;48.806;9.140;2024-01-30T17:05:26;9.40;99.90
7498;DHT22;3790;48.806;9.140;2024-01-30T17:10:27;9.40;99.90
7498;DHT22;3790;48.806;9.140;2024-01-30T17:15:27;9.20;99.90
7498;DHT22;3790;48.806;9.140;2024-01-30T17:20:28;9.30;99.90
7498;DHT22;3790;48.806;9.140;2024-01-30T17:25:28;9.40;99.90
7498;DHT22;3790;48.806;9.140;2024-01-30T17:30:29;9.50;99.90
7498;DHT22;3790;48.806;9.140;2024-01-30T17:35:30;9.50;99.90
7498;DHT22;3790;48.806;9.140;2024-01-30T17:40:30;9.50;99.90
7498;DHT22;3790;48.806;9.140;2024-01-30T17:45:31;9.50;99.90
7498;DHT22;3790;48.806;9.140;2024-01-30T17:50:31;9.50;99.90
7498;DHT22;3790;48.806;9.140;2024-01-30T17:55:32;9.40;99.90
7498;DHT22;3790;48.806;9.140;2024-01-30T18:00:33;9.20;99.90
7498;DHT22;3790;48.806;9.140;2024-01-30T18:05:34;9.20;99.90
7498;DHT22;3790;48.806;9.140;2024-01-30T18:10:34;9.00;99.90
7498;DHT22;3790;48.806;9.140;2024-01-30T18:15:36;9.10;99.90
7498;DHT22;3790;48.806;9.140;2024-01-30T18:20:37;9.20;99.90
7498;DHT22;3790;48.806;9.140;2024-01-30T18:25:37;9.30;99.90
7498;DHT22;3790;48.806;9.140;2024-01-30T18:30:38;9.20;99.90
7498;DHT22;3790;48.806;9.140;2024-01-30T18:35:38;9.20;99.90
7498;DHT22;3790;48.806;9.140;2024-01-30T18:40:39;9.30;99.90
7498;DHT22;3790;48.806;9.140;2024-01-30T18:45:40;9.30;99.90
7498;DHT22;3790;48.806;9.140;2024-01-30T18:50:40;9.40;99.90
7498;DHT22;3790;48.806;9.140;2024-01-30T18:55:41;9.20;99.90
7498;DHT22;3790;48.806;9.140;2024-01-30T19:00:42;9.00;99.90
7498;DHT22;3790;48.806;9.140;2024-01-30T19:05:44;9.00;99.90
7498;DHT22;3790;48.806;9.140;2024-01-30T19:10:44;9.20;99.90
7498;DHT22;3790;48.806;9.140;2024-01-30T19:15:49;9.40;99.90
7498;DHT22;3790;48.806;9.140;2024-01-30T19:20:50;9.60;99.90
7498;DHT22;3790;48.806;9.140;2024-01-30T19:25:51;9.70;99.90
7498;DHT22;3790;48.806;9.140;2024-01-30T19:30:51;9.80;99.90
7498;DHT22;3790;48.806;9.140;2024-01-30T19:35:52;9.80;99.90
7498;DHT22;3790;48.806;9.140;2024-01-30T19:40:52;9.60;99.90
7498;DHT22;3790;48.806;9.140;2024-01-30T19:45:53;9.40;99.90
7498;DHT22;3790;48.806;9.140;2024-01-30T19:50:54;9.20;99.90
7498;DHT22;3790;48.806;9.140;2024-01-30T19:55:54;9.30;99.90
7498;DHT22;3790;48.806;9.140;2024-01-30T20:00:55;9.30;99.90
7498;DHT22;3790;48.806;9.140;2024-01-30T20:05:55;9.30;99.90
7498;DHT22;3790;48.806;9.140;2024-01-30T20:10:57;9.10;99.90
7498;DHT22;3790;48.806;9.140;2024-01-30T20:15:57;8.80;99.90
7498;DHT22;3790;48.806;9.140;2024-01-30T20:20:59;8.90;99.90
7498;DHT22;3790;48.806;9.140;2024-01-30T20:25:59;8.80;99.90
7498;DHT22;3790;48.806;9.140;2024-01-30T20:31:02;8.80;99.90
7498;DHT22;3790;48.806;9.140;2024-01-30T20:36:06;8.70;99.90
7498;DHT22;3790;48.806;9.140;2024-01-30T20:41:07;8.70;99.90
7498;DHT22;3790;48.806;9.140;2024-01-30T20:46:10;8.50;99.90
7498;DHT22;3790;48.806;9.140;2024-01-30T20:51:17;8.50;99.90
7498;DHT22;3790;48.806;9.140;2024-01-30T20:56:17;8.50;99.90
7498;DHT22;3790;48.806;9.140;2024-01-30T21:01:18;8.40;99.90
7498;DHT22;3790;48.806;9.140;2024-01-30T21:06:18;8.30;99.90
7498;DHT22;3790;48.806;9.140;2024-01-30T21:17:16;8.20;99.90
7498;DHT22;3790;48.806;9.140;2024-01-30T21:22:17;8.30;99.90
7498;DHT22;3790;48.806;9.140;2024-01-30T21:27:17;8.40;99.90
7498;DHT22;3790;48.806;9.140;2024-01-30T21:32:18;8.40;99.90
7498;DHT22;3790;48.806;9.140;2024-01-30T21:37:18;8.40;99.90
7498;DHT22;3790;48.806;9.140;2024-01-30T21:42:19;8.50;99.90
7498;DHT22;3790;48.806;9.140;2024-01-30T21:47:22;8.60;99.90
7498;DHT22;3790;48.806;9.140;2024-01-30T21:52:23;8.80;99.90
7498;DHT22;3790;48.806;9.140;2024-01-30T21:57:23;8.80;99.90
7498;DHT22;3790;48.806;9.140;2024-01-30T22:02:24;8.90;99.90
7498;DHT22;3790;48.806;9.140;2024-01-30T22:07:25;9.00;99.90
7498;DHT22;3790;48.806;9.140;2024-01-30T22:12:25;8.80;99.90
7498;DHT22;3790;48.806;9.140;2024-01-30T22:17:26;8.80;99.90
7498;DHT22;3790;48.806;9.140;2024-01-30T22:22:27;9.00;99.90
7498;DHT22;3790;48.806;9.140;2024-01-30T22:27:27;8.80;99.90
7498;DHT22;3790;48.806;9.140;2024-01-30T22:32:28;8.50;99.90
7498;DHT22;3790;48.806;9.140;2024-01-30T22:37:28;8.60;99.90
7498;DHT22;3790;48.806;9.140;2024-01-30T22:42:29;8.80;99.90
7498;DHT22;3790;48.806;9.140;2024-01-30T22:47:29;8.90;99.90
7498;DHT22;3790;48.806;9.140;2024-01-30T22:52:30;8.90;99.90
7498;DHT22;3790;48.806;9.140;2024-01-30T22:57:30;8.70;99.90
7498;DHT22;3790;48.806;9.140;2024-01-30T23:02:33;8.50;99.90
7498;DHT22;3790;48.806;9.140;2024-01-30T23:07:34;8.60;99.90
7498;DHT22;3790;48.806;9.140;2024-01-30T23:12:40;8.80;99.90
7498;DHT22;3790;48.806;9.140;2024-01-30T23:17:42;8.80;99.90
